Time;durP1;ratioP1;P1;durP2;ratioP2;P2;SDS_P1;SDS_P2;PMS_P1;PMS_P2;Temp;Humidity;BMP_temperature;BMP_pressure;BME280_temperature;BME280_humidity;BME280_pressure;Samples;Min_cycle;Max_cycle;Signal;HPM_P1;HPM_P2
2022/05/06 00:00:41;;;;;;;17.60;11.15;;;7.40;99.90;;;;;;5005056;28;20033;-73
2022/05/06 00:03:10;;;;;;;20.80;13.02;;;7.40;99.90;;;;;;5035486;28;20039;-73
2022/05/06 00:05:39;;;;;;;26.25;15.55;;;7.30;99.90;;;;;;5034632;28;20135;-72
2022/05/06 00:08:04;;;;;;;25.67;15.57;;;7.40;99.90;;;;;;5034994;28;20123;-72
2022/05/06 00:10:30;;;;;;;27.48;15.30;;;7.30;99.90;;;;;;5024798;28;20472;-72
2022/05/06 00:12:58;;;;;;;21.77;14.45;;;7.40;99.90;;;;;;5040230;28;20041;-73
2022/05/06 00:15:24;;;;;;;24.75;15.35;;;7.30;99.90;;;;;;5008037;28;20076;-73
2022/05/06 00:17:50;;;;;;;21.20;12.95;;;7.30;99.90;;;;;;5019242;28;20041;-73
2022/05/06 00:20:18;;;;;;;18.40;12.57;;;7.30;99.90;;;;;;5014558;28;20065;-73
2022/05/06 00:22:46;;;;;;;20.88;12.93;;;7.20;99.90;;;;;;5038484;28;20041;-73
2022/05/06 00:25:12;;;;;;;22.08;13.63;;;7.20;99.90;;;;;;5021646;28;20045;-73
2022/05/06 00:27:41;;;;;;;19.13;13.07;;;7.20;99.90;;;;;;5003106;28;20046;-74
2022/05/06 00:30:08;;;;;;;21.20;14.38;;;7.20;99.90;;;;;;5021914;28;20051;-72
2022/05/06 00:32:34;;;;;;;15.68;11.57;;;7.20;99.90;;;;;;5042723;28;20033;-73
2022/05/06 00:34:59;;;;;;;15.10;9.65;;;7.10;99.90;;;;;;5026196;28;20049;-72
2022/05/06 00:37:25;;;;;;;14.32;8.73;;;7.10;99.90;;;;;;5003695;28;20099;-72
2022/05/06 00:39:54;;;;;;;11.48;8.75;;;7.00;99.90;;;;;;5015219;28;20091;-72
2022/05/06 00:42:19;;;;;;;10.63;7.72;;;7.00;99.90;;;;;;5041739;28;20069;-72
2022/05/06 00:44:47;;;;;;;11.18;7.47;;;6.90;99.90;;;;;;5037505;28;20524;-72
2022/05/06 00:49:44;;;;;;;11.75;7.00;;;6.90;99.90;;;;;;5061467;28;20068;-75
2022/05/06 00:52:10;;;;;;;8.93;6.55;;;6.80;99.90;;;;;;5071724;28;20033;-75
2022/05/06 00:54:38;;;;;;;11.40;8.40;;;6.70;99.90;;;;;;5067054;28;20055;-75
2022/05/06 00:57:06;;;;;;;12.43;8.27;;;6.70;99.90;;;;;;5082488;28;20127;-75
2022/05/06 00:59:32;;;;;;;13.65;9.95;;;6.70;99.90;;;;;;5064650;28;20099;-76
2022/05/06 01:01:57;;;;;;;16.15;10.98;;;6.60;99.90;;;;;;5029483;28;20504;-76
2022/05/06 01:04:23;;;;;;;19.08;11.70;;;6.60;99.90;;;;;;5042152;28;20033;-75
2022/05/06 01:06:49;;;;;;;16.25;11.13;;;6.60;99.90;;;;;;5030756;28;20092;-75
2022/05/06 01:09:16;;;;;;;15.50;10.10;;;6.50;99.90;;;;;;5014020;28;20037;-75
2022/05/06 01:11:42;;;;;;;17.50;10.50;;;6.50;99.90;;;;;;5037833;28;20044;-75
2022/05/06 01:14:08;;;;;;;14.35;10.23;;;6.40;99.90;;;;;;5045514;28;20037;-75
2022/05/06 01:16:38;;;;;;;18.52;11.38;;;6.40;99.90;;;;;;5056761;28;20082;-76
2022/05/06 01:19:05;;;;;;;17.08;11.45;;;6.30;99.90;;;;;;5033621;28;20120;-76
2022/05/06 01:21:36;;;;;;;21.83;13.20;;;6.30;99.90;;;;;;5056340;28;20099;-76
2022/05/06 01:24:03;;;;;;;20.70;13.57;;;6.30;99.90;;;;;;5045437;28;20036;-76
2022/05/06 01:26:52;;;;;;;16.88;11.57;;;6.30;99.90;;;;;;5070284;28;20041;-76
2022/05/06 01:29:18;;;;;;;17.90;11.77;;;6.30;99.90;;;;;;5042892;28;20121;-76
2022/05/06 01:31:44;;;;;;;22.50;13.90;;;6.30;99.90;;;;;;5057024;28;20436;-76
2022/05/06 01:34:13;;;;;;;22.52;12.98;;;6.30;99.90;;;;;;5061328;28;20158;-76
2022/05/06 01:36:41;;;;;;;20.05;12.70;;;6.30;99.90;;;;;;5065117;28;20041;-75
2022/05/06 01:39:09;;;;;;;15.02;10.75;;;6.30;99.90;;;;;;5042448;28;20033;-76
2022/05/06 01:41:37;;;;;;;16.15;10.88;;;6.20;99.90;;;;;;5032828;28;20033;-76
2022/05/06 01:44:05;;;;;;;19.13;11.70;;;6.20;99.90;;;;;;5046935;28;20034;-75
2022/05/06 01:46:33;;;;;;;17.75;12.68;;;6.20;99.90;;;;;;5041498;28;20036;-76
2022/05/06 01:49:02;;;;;;;24.38;15.88;;;6.20;99.90;;;;;;5033310;28;20398;-76
2022/05/06 01:51:29;;;;;;;24.35;14.23;;;6.20;99.90;;;;;;5055928;28;20033;-76
2022/05/06 01:53:54;;;;;;;22.30;13.50;;;6.20;99.90;;;;;;5061672;28;20127;-76
2022/05/06 01:56:21;;;;;;;24.55;13.95;;;6.10;99.90;;;;;;5039007;28;20120;-75
2022/05/06 01:58:47;;;;;;;25.45;15.98;;;6.10;99.90;;;;;;5057823;28;20499;-76
2022/05/06 02:01:13;;;;;;;26.23;16.35;;;6.10;99.90;;;;;;5050107;28;20037;-75
2022/05/06 02:06:22;;;;;;;22.42;14.27;;;6.10;99.90;;;;;;5049310;28;20051;-76
2022/05/06 02:08:48;;;;;;;21.05;14.02;;;6.10;99.90;;;;;;5061273;28;20130;-76
2022/05/06 02:11:14;;;;;;;19.73;13.43;;;6.10;99.90;;;;;;5062161;28;20044;-75
2022/05/06 02:13:40;;;;;;;23.77;14.73;;;6.10;99.90;;;;;;5060515;28;20040;-76
2022/05/06 02:16:06;;;;;;;24.70;15.40;;;6.10;99.90;;;;;;5056934;28;20406;-76
2022/05/06 02:18:31;;;;;;;20.85;14.43;;;6.00;99.90;;;;;;5045626;28;20500;-76
2022/05/06 02:20:58;;;;;;;20.23;12.70;;;6.00;99.90;;;;;;5040548;28;20131;-75
2022/05/06 02:23:24;;;;;;;21.30;13.75;;;5.90;99.90;;;;;;5035739;28;20043;-75
2022/05/06 02:25:50;;;;;;;19.13;11.48;;;5.90;99.90;;;;;;5061482;28;20041;-75
2022/05/06 02:28:16;;;;;;;14.60;9.65;;;5.80;99.90;;;;;;5052855;28;20036;-75
2022/05/06 02:33:26;;;;;;;11.95;8.82;;;5.80;99.90;;;;;;5054818;28;20052;-75
2022/05/06 02:35:52;;;;;;;15.45;9.80;;;5.80;99.90;;;;;;5031812;28;20037;-75
2022/05/06 02:38:19;;;;;;;16.38;10.90;;;5.80;99.90;;;;;;5049948;28;20128;-76
2022/05/06 02:40:45;;;;;;;17.63;10.70;;;5.70;99.90;;;;;;5046093;28;20398;-76
2022/05/06 02:43:10;;;;;;;26.08;15.65;;;5.70;99.90;;;;;;5030918;28;20039;-76
2022/05/06 02:45:36;;;;;;;22.25;13.15;;;5.70;99.90;;;;;;5040026;28;20045;-75
2022/05/06 02:48:02;;;;;;;21.13;12.60;;;5.70;99.90;;;;;;5056051;28;20041;-76
2022/05/06 02:50:28;;;;;;;17.33;11.15;;;5.60;99.90;;;;;;5035095;28;20048;-76
2022/05/06 02:52:54;;;;;;;12.40;8.20;;;5.60;99.90;;;;;;5057607;28;20088;-75
2022/05/06 02:55:21;;;;;;;14.38;9.13;;;5.60;99.90;;;;;;5040296;28;20049;-76
2022/05/06 02:57:47;;;;;;;13.05;9.40;;;5.60;99.90;;;;;;5057429;28;20029;-75
2022/05/06 03:00:13;;;;;;;14.48;10.15;;;5.50;99.90;;;;;;5037782;28;20044;-75
2022/05/06 03:02:40;;;;;;;16.48;10.52;;;5.50;99.90;;;;;;5061451;28;20411;-75
2022/05/06 03:05:06;;;;;;;16.13;11.05;;;5.50;99.90;;;;;;5073246;28;20398;-75
2022/05/06 03:07:32;;;;;;;12.27;9.20;;;5.40;99.90;;;;;;5072869;28;20509;-75
2022/05/06 03:09:57;;;;;;;12.60;8.30;;;5.40;99.90;;;;;;5065937;28;20106;-75
2022/05/06 03:12:26;;;;;;;11.50;8.32;;;5.40;99.90;;;;;;5051112;28;20064;-75
2022/05/06 03:14:52;;;;;;;9.75;7.00;;;5.40;99.90;;;;;;5045102;28;20479;-75
2022/05/06 03:17:18;;;;;;;12.38;8.32;;;5.30;99.90;;;;;;5064549;28;20040;-76
2022/05/06 03:19:43;;;;;;;14.52;9.05;;;5.30;99.90;;;;;;5066420;28;20048;-76
2022/05/06 03:22:09;;;;;;;19.00;11.45;;;5.30;99.90;;;;;;5032867;28;20411;-76
2022/05/06 03:24:35;;;;;;;20.00;12.88;;;5.20;99.90;;;;;;5038502;28;20124;-75
2022/05/06 03:27:00;;;;;;;21.35;13.55;;;5.20;99.90;;;;;;5024251;28;20120;-75
2022/05/06 03:29:26;;;;;;;22.08;14.15;;;5.20;99.90;;;;;;5045486;28;20060;-75
2022/05/06 03:31:53;;;;;;;20.83;13.48;;;5.20;99.90;;;;;;5061567;28;20051;-75
2022/05/06 03:34:19;;;;;;;20.98;14.65;;;5.20;99.90;;;;;;5035857;28;20037;-75
2022/05/06 03:36:45;;;;;;;20.85;13.02;;;5.10;99.90;;;;;;5059670;28;20067;-75
2022/05/06 03:39:11;;;;;;;22.40;13.15;;;5.10;99.90;;;;;;5046572;28;20041;-75
2022/05/06 03:41:37;;;;;;;18.30;12.68;;;5.10;99.90;;;;;;5048400;28;20095;-75
2022/05/06 03:44:03;;;;;;;14.10;9.70;;;5.10;99.90;;;;;;5035820;28;20037;-75
2022/05/06 03:46:28;;;;;;;12.95;9.95;;;5.10;99.90;;;;;;5057957;28;20045;-75
2022/05/06 03:48:55;;;;;;;12.60;9.45;;;5.10;99.90;;;;;;5049635;28;20463;-75
2022/05/06 03:51:20;;;;;;;12.48;8.98;;;5.00;99.90;;;;;;5051675;28;20120;-75
2022/05/06 03:53:51;;;;;;;10.75;8.05;;;5.00;99.90;;;;;;5054485;28;20127;-75
2022/05/06 03:56:17;;;;;;;18.73;7.00;;;5.00;99.90;;;;;;5052158;28;20072;-75
2022/05/06 03:58:43;;;;;;;8.65;7.05;;;5.00;99.90;;;;;;5050829;28;20037;-75
2022/05/06 04:01:09;;;;;;;34.97;9.18;;;5.00;99.90;;;;;;5052099;28;20107;-75
2022/05/06 04:03:35;;;;;;;16.63;10.57;;;5.00;99.90;;;;;;5049313;28;20041;-75
2022/05/06 04:06:01;;;;;;;19.63;11.63;;;5.00;99.90;;;;;;5024067;28;20087;-75
2022/05/06 04:08:27;;;;;;;26.73;12.95;;;5.10;99.90;;;;;;5031634;28;20507;-75
2022/05/06 04:10:53;;;;;;;26.52;14.07;;;5.20;99.90;;;;;;5035040;28;20505;-75
2022/05/06 04:13:19;;;;;;;48.40;14.45;;;5.20;99.90;;;;;;5048261;28;20049;-75
2022/05/06 04:15:48;;;;;;;38.17;16.80;;;5.30;99.90;;;;;;5028635;28;20033;-75
2022/05/06 04:18:14;;;;;;;36.53;17.73;;;5.40;99.90;;;;;;5048989;28;20029;-75
2022/05/06 04:23:30;;;;;;;38.33;17.38;;;5.60;99.90;;;;;;5065995;28;20055;-75
2022/05/06 04:25:57;;;;;;;54.55;19.88;;;5.70;99.90;;;;;;5071430;28;20544;-75
2022/05/06 04:28:23;;;;;;;37.88;20.67;;;5.80;99.90;;;;;;5060977;28;20056;-75
2022/05/06 04:30:51;;;;;;;65.78;20.75;;;5.90;99.90;;;;;;5061532;28;20056;-75
2022/05/06 04:33:18;;;;;;;42.30;21.35;;;6.00;99.90;;;;;;5045840;28;20037;-75
2022/05/06 04:35:44;;;;;;;42.17;20.13;;;6.10;99.90;;;;;;5048479;28;20029;-75
2022/05/06 04:38:09;;;;;;;41.35;20.35;;;6.30;99.90;;;;;;5034840;28;20395;-76
2022/05/06 04:40:36;;;;;;;39.58;19.23;;;6.40;99.90;;;;;;5049147;28;20044;-76
2022/05/06 04:43:01;;;;;;;45.40;21.45;;;6.50;99.90;;;;;;5051028;28;20048;-76
2022/05/06 04:45:28;;;;;;;40.20;21.65;;;6.60;99.90;;;;;;5041790;28;20410;-76
2022/05/06 04:47:54;;;;;;;73.25;19.88;;;6.80;99.90;;;;;;5038916;28;20052;-75
2022/05/06 04:50:21;;;;;;;81.47;20.58;;;6.80;99.90;;;;;;5038169;28;20047;-76
2022/05/06 04:52:47;;;;;;;156.02;26.90;;;7.00;99.90;;;;;;5050811;28;20048;-75
2022/05/06 04:55:12;;;;;;;76.95;21.30;;;7.10;99.90;;;;;;5054283;28;20029;-75
2022/05/06 04:57:38;;;;;;;92.90;22.42;;;7.20;99.90;;;;;;5052827;28;20498;-76
2022/05/06 05:00:04;;;;;;;50.58;22.67;;;7.30;99.90;;;;;;5044873;28;20368;-75
2022/05/06 05:02:30;;;;;;;85.32;21.55;;;7.40;99.90;;;;;;5054292;28;20094;-76
2022/05/06 05:04:58;;;;;;;154.65;23.25;;;7.50;99.90;;;;;;5049245;28;20033;-76
2022/05/06 05:07:24;;;;;;;121.57;22.67;;;7.70;99.90;;;;;;5048806;28;20045;-75
2022/05/06 05:09:50;;;;;;;57.17;22.52;;;7.80;99.90;;;;;;5057639;28;20041;-76
2022/05/06 05:12:16;;;;;;;114.18;22.60;;;7.90;99.90;;;;;;5057685;28;20037;-76
2022/05/06 05:14:42;;;;;;;76.55;22.98;;;8.00;99.90;;;;;;5041844;28;20060;-76
2022/05/06 05:17:09;;;;;;;62.50;22.42;;;8.10;99.90;;;;;;5015604;28;20443;-76
2022/05/06 05:19:34;;;;;;;51.85;23.13;;;8.20;99.90;;;;;;5033157;28;20088;-75
2022/05/06 05:22:00;;;;;;;49.83;22.08;;;8.40;99.90;;;;;;5047846;28;20045;-76
2022/05/06 05:24:25;;;;;;;46.33;20.55;;;8.50;99.90;;;;;;5033613;28;20047;-76
2022/05/06 05:26:51;;;;;;;53.28;20.30;;;8.60;99.90;;;;;;5051315;28;20048;-75
2022/05/06 05:29:17;;;;;;;95.05;21.60;;;8.80;99.90;;;;;;5037564;28;20055;-75
2022/05/06 05:31:43;;;;;;;45.28;20.65;;;8.90;99.90;;;;;;5046517;28;20067;-75
2022/05/06 05:34:09;;;;;;;52.22;18.98;;;9.10;99.90;;;;;;5075163;28;20514;-75
2022/05/06 05:36:34;;;;;;;39.20;18.92;;;9.20;99.90;;;;;;5066146;28;20037;-75
2022/05/06 05:39:00;;;;;;;47.05;19.85;;;9.30;99.90;;;;;;5070003;28;20041;-75
2022/05/06 05:41:25;;;;;;;44.50;20.23;;;9.50;99.90;;;;;;5056150;28;20048;-75
2022/05/06 05:49:19;;;;;;;41.58;19.38;;;9.80;99.90;;;;;;5042279;28;20156;-75
2022/05/06 05:51:44;;;;;;;50.63;19.38;;;10.00;99.90;;;;;;5058131;28;20526;-75
2022/05/06 05:54:10;;;;;;;48.65;20.15;;;10.10;99.90;;;;;;5050138;28;20037;-75
2022/05/06 05:56:35;;;;;;;43.80;19.95;;;10.20;99.90;;;;;;5041686;28;20125;-75
2022/05/06 05:59:01;;;;;;;42.88;20.23;;;10.30;99.90;;;;;;5031241;28;20064;-76
2022/05/06 06:01:28;;;;;;;43.95;20.02;;;10.40;99.90;;;;;;5029792;28;20110;-75
2022/05/06 06:03:53;;;;;;;50.17;21.30;;;10.50;99.90;;;;;;5029688;28;20587;-76
2022/05/06 06:06:19;;;;;;;44.72;20.20;;;10.60;99.90;;;;;;5045595;28;20127;-75
2022/05/06 06:08:44;;;;;;;46.33;20.02;;;10.80;99.90;;;;;;5042935;28;20053;-73
2022/05/06 06:11:10;;;;;;;42.42;20.13;;;10.80;99.90;;;;;;5054513;28;20144;-74
2022/05/06 06:13:36;;;;;;;45.63;18.90;;;10.90;99.90;;;;;;5045464;28;20041;-74
2022/05/06 06:16:01;;;;;;;41.05;18.52;;;11.00;99.90;;;;;;5021908;28;20037;-73
2022/05/06 06:18:27;;;;;;;37.95;18.52;;;11.00;99.90;;;;;;5029695;28;20050;-72
2022/05/06 06:20:56;;;;;;;42.75;19.23;;;11.10;99.90;;;;;;5030172;28;20404;-74
2022/05/06 06:23:23;;;;;;;41.13;19.35;;;11.20;99.90;;;;;;5018474;28;20033;-73
2022/05/06 06:25:48;;;;;;;40.35;19.23;;;11.30;99.90;;;;;;5038187;28;20045;-74
2022/05/06 06:28:14;;;;;;;42.78;19.45;;;11.40;99.90;;;;;;5047996;28;20048;-74
2022/05/06 06:30:40;;;;;;;41.92;20.60;;;11.50;99.90;;;;;;5050946;28;20033;-75
2022/05/06 06:33:07;;;;;;;38.80;18.83;;;11.50;99.90;;;;;;5042738;28;20407;-75
2022/05/06 06:35:33;;;;;;;36.53;17.77;;;11.60;99.90;;;;;;5030940;28;20047;-75
2022/05/06 06:37:58;;;;;;;41.97;19.52;;;11.70;99.90;;;;;;5054436;28;20041;-75
2022/05/06 06:40:24;;;;;;;39.08;19.88;;;11.80;99.90;;;;;;5059871;28;20060;-74
2022/05/06 06:42:50;;;;;;;38.85;18.40;;;11.90;99.90;;;;;;5062400;28;20127;-73
2022/05/06 06:45:15;;;;;;;36.80;17.75;;;12.00;99.90;;;;;;5043426;28;20087;-74
2022/05/06 06:47:41;;;;;;;36.47;17.95;;;12.00;99.90;;;;;;5066793;23;20103;-75
2022/05/06 06:50:39;;;;;;;33.53;16.65;;;12.10;99.90;;;;;;5017732;28;20038;-75
2022/05/06 06:53:16;;;;;;;30.38;15.68;;;12.20;99.90;;;;;;5032602;28;20422;-75
2022/05/06 06:56:08;;;;;;;32.17;15.77;;;12.30;99.90;;;;;;5016500;28;20037;-75
2022/05/06 06:58:45;;;;;;;31.40;15.15;;;12.30;99.90;;;;;;5012620;28;20140;-76
2022/05/06 07:01:23;;;;;;;29.02;14.60;;;12.30;99.90;;;;;;5014285;28;20044;-76
2022/05/06 07:04:01;;;;;;;27.38;13.50;;;12.40;99.90;;;;;;5028217;28;20569;-77
2022/05/06 07:12:08;;;;;;;25.88;13.05;;;12.80;99.90;;;;;;5024583;28;20394;-76
2022/05/06 07:14:36;;;;;;;31.23;13.77;;;12.90;99.90;;;;;;5016258;28;20080;-76
2022/05/06 07:17:18;;;;;;;31.35;14.68;;;12.90;99.90;;;;;;5027824;28;20041;-76
2022/05/06 07:20:00;;;;;;;31.77;15.63;;;13.00;99.90;;;;;;5023844;28;20077;-76
2022/05/06 07:22:34;;;;;;;30.58;15.35;;;13.10;99.90;;;;;;5009723;28;20108;-76
2022/05/06 07:25:03;;;;;;;32.90;14.95;;;13.20;99.90;;;;;;5010034;28;20047;-76
2022/05/06 07:27:35;;;;;;;31.33;14.25;;;13.10;99.90;;;;;;5027033;28;20053;-75
2022/05/06 07:30:14;;;;;;;27.27;13.35;;;13.20;99.90;;;;;;5019317;28;20034;-76
2022/05/06 07:33:01;;;;;;;26.13;14.10;;;13.30;99.90;;;;;;5002263;28;20049;-76
2022/05/06 07:35:32;;;;;;;23.60;13.05;;;13.40;99.90;;;;;;5012723;28;20045;-76
2022/05/06 07:38:09;;;;;;;21.00;12.27;;;13.40;99.90;;;;;;5014947;28;20045;-77
2022/05/06 07:40:37;;;;;;;19.08;11.13;;;13.50;99.90;;;;;;5012179;28;20042;-77
2022/05/06 07:43:11;;;;;;;15.98;9.23;;;13.50;99.90;;;;;;5012152;28;20038;-77
2022/05/06 07:45:45;;;;;;;14.80;9.73;;;13.60;99.90;;;;;;5012272;28;20068;-77
2022/05/06 07:48:13;;;;;;;13.93;9.68;;;13.90;99.90;;;;;;4995706;28;20046;-76
2022/05/06 07:50:44;;;;;;;13.25;9.43;;;14.30;99.90;;;;;;4996042;28;20610;-77
2022/05/06 07:53:16;;;;;;;13.80;9.02;;;14.60;99.90;;;;;;4994925;28;20054;-77
2022/05/06 07:55:48;;;;;;;13.10;9.20;;;14.80;99.90;;;;;;5021753;28;20072;-77
2022/05/06 07:58:25;;;;;;;11.07;8.52;;;14.90;99.90;;;;;;5008490;28;20064;-77
2022/05/06 08:00:56;;;;;;;11.07;8.65;;;15.10;99.90;;;;;;5009196;28;20045;-77
2022/05/06 08:06:18;;;;;;;9.85;7.78;;;15.60;99.90;;;;;;5012514;28;20052;-77
2022/05/06 08:09:02;;;;;;;10.00;8.85;;;15.70;99.90;;;;;;4995455;28;20044;-77
2022/05/06 08:11:39;;;;;;;10.75;8.48;;;15.80;99.90;;;;;;5004243;28;20049;-77
2022/05/06 08:14:08;;;;;;;10.35;8.95;;;16.00;99.90;;;;;;4995592;28;20062;-77
2022/05/06 08:16:50;;;;;;;10.35;8.80;;;16.20;99.90;;;;;;5005632;28;20049;-77
2022/05/06 08:19:19;;;;;;;9.93;8.90;;;16.50;99.90;;;;;;4995329;28;20045;-77
2022/05/06 08:22:21;;;;;;;9.65;8.60;;;16.70;99.90;;;;;;5016955;28;20161;-77
2022/05/06 08:25:06;;;;;;;8.90;7.38;;;16.80;99.90;;;;;;4997455;28;20059;-77
2022/05/06 08:27:39;;;;;;;9.05;8.05;;;16.90;99.90;;;;;;5007353;28;20064;-77
2022/05/06 08:30:23;;;;;;;8.52;7.65;;;17.30;99.90;;;;;;4995752;28;20042;-77
2022/05/06 08:33:06;;;;;;;8.40;7.60;;;17.70;99.90;;;;;;5001447;28;20046;-77
2022/05/06 08:35:41;;;;;;;8.13;7.30;;;17.80;99.90;;;;;;4996322;28;20503;-77
2022/05/06 08:38:13;;;;;;;8.48;7.57;;;17.90;99.90;;;;;;5004109;28;20128;-78
2022/05/06 08:40:41;;;;;;;7.95;7.15;;;18.00;99.90;;;;;;5004188;28;20048;-76
2022/05/06 08:43:07;;;;;;;8.20;7.40;;;18.10;99.90;;;;;;5000407;28;20048;-77
2022/05/06 08:51:06;;;;;;;7.43;6.70;;;19.70;99.90;;;;;;5034935;28;20442;-77
2022/05/06 08:53:37;;;;;;;7.28;6.57;;;20.30;99.90;;;;;;5011039;28;20071;-77
2022/05/06 08:56:03;;;;;;;7.72;6.93;;;21.00;99.90;;;;;;5011312;28;20054;-76
2022/05/06 08:58:34;;;;;;;7.25;6.55;;;21.80;99.90;;;;;;5012105;28;20136;-78
2022/05/06 09:08:57;;;;;;;6.65;6.05;;;24.00;94.80;;;;;;5013390;28;20040;-78
2022/05/06 09:18:35;;;;;;;6.25;5.75;;;25.20;94.50;;;;;;5032818;23;20057;-78
2022/05/06 09:21:19;;;;;;;6.53;5.93;;;25.50;87.10;;;;;;5033005;28;20089;-78
2022/05/06 09:24:21;;;;;;;6.05;5.50;;;25.40;96.80;;;;;;5026878;28;20422;-78
2022/05/06 09:27:08;;;;;;;6.15;5.65;;;25.10;93.80;;;;;;5042832;28;20053;-78
2022/05/06 09:29:54;;;;;;;;;;;;;;;;;;;;;
2022/05/06 09:33:07;;;;;;;6.03;5.50;;;25.00;93.80;;;;;;5036430;28;20053;-79
2022/05/06 09:35:51;;;;;;;6.18;5.68;;;25.30;83.80;;;;;;4950998;28;20045;-80
2022/05/06 09:42:38;;;;;;;5.65;5.15;;;25.80;85.70;;;;;;5076641;28;20045;-80
2022/05/06 09:45:39;;;;;;;5.80;5.30;;;26.50;78.50;;;;;;5091292;28;20071;-80
2022/05/06 09:51:43;;;;;;;6.28;5.78;;;26.30;76.00;;;;;;5055372;28;20045;-79
2022/05/06 09:54:41;;;;;;;5.93;5.43;;;26.00;79.70;;;;;;5071580;28;20052;-79
2022/05/06 10:00:44;;;;;;;;;;;25.90;70.00;;;;;;5136399;22;20060;-79
2022/05/06 10:07:09;;;;;;;5.20;4.70;;;25.80;71.10;;;;;;5010605;28;20041;-79
2022/05/06 10:10:43;;;;;;;6.47;4.68;;;25.70;72.00;;;;;;5101233;23;20143;-79
2022/05/06 10:13:48;;;;;;;4.80;4.40;;;25.70;72.20;;;;;;5035873;28;20045;-79
2022/05/06 10:16:31;;;;;;;5.13;4.65;;;25.70;67.10;;;;;;5024062;28;20132;-79
2022/05/06 10:19:19;;;;;;;4.80;4.13;;;25.70;73.30;;;;;;5014164;28;20072;-80
2022/05/06 10:22:05;;;;;;;5.25;4.47;;;25.60;73.70;;;;;;5010494;28;20044;-78
2022/05/06 10:24:55;;;;;;;3.88;3.47;;;25.60;69.10;;;;;;5011835;28;20081;-78
2022/05/06 10:33:32;;;;;;;5.05;4.30;;;26.70;64.80;;;;;;5051849;28;20040;-79
2022/05/06 10:36:01;;;;;;;4.25;3.80;;;26.80;65.30;;;;;;5034632;28;20095;-78
2022/05/06 10:38:46;;;;;;;4.28;3.88;;;27.00;64.60;;;;;;5026799;28;20041;-79
2022/05/06 10:42:11;;;;;;;3.90;3.40;;;27.00;62.30;;;;;;5033138;28;20402;-78
2022/05/06 10:45:21;;;;;;;4.28;3.88;;;27.20;55.20;;;;;;5019839;28;20048;-79
2022/05/06 10:51:35;;;;;;;4.43;3.03;;;28.30;53.50;;;;;;5018902;28;20048;-78
2022/05/06 10:54:04;;;;;;;4.28;3.88;;;28.50;55.00;;;;;;5021181;28;20441;-78
2022/05/06 10:56:36;;;;;;;3.95;3.55;;;28.70;53.50;;;;;;5031361;28;20037;-78
2022/05/06 10:59:08;;;;;;;3.90;3.53;;;28.80;52.50;;;;;;5020684;28;20487;-79
2022/05/06 11:01:45;;;;;;;4.07;3.72;;;29.00;52.60;;;;;;5030475;28;20029;-78
2022/05/06 11:04:20;;;;;;;3.83;3.53;;;29.10;52.30;;;;;;5025524;28;20036;-78
2022/05/06 11:07:09;;;;;;;4.10;3.70;;;29.20;51.50;;;;;;5035896;28;20076;-78
2022/05/06 11:09:44;;;;;;;3.90;3.55;;;29.40;50.70;;;;;;5020878;28;20073;-78
2022/05/06 11:12:41;;;;;;;3.95;3.55;;;29.50;49.60;;;;;;5038801;28;20037;-78
2022/05/06 11:15:21;;;;;;;4.40;4.00;;;29.60;48.70;;;;;;5017588;28;20099;-77
2022/05/06 11:17:53;;;;;;;7.38;4.05;;;29.80;49.20;;;;;;5039397;28;20037;-79
2022/05/06 11:20:41;;;;;;;4.95;4.20;;;29.90;49.40;;;;;;5024227;28;20045;-79
2022/05/06 11:23:16;;;;;;;3.78;3.17;;;30.10;48.80;;;;;;5000583;28;20076;-78
2022/05/06 11:25:46;;;;;;;4.90;4.45;;;30.10;46.10;;;;;;5024050;28;20057;-79
2022/05/06 11:28:24;;;;;;;4.32;3.92;;;30.00;47.60;;;;;;4999721;28;20037;-78
2022/05/06 11:31:05;;;;;;;4.78;4.13;;;30.10;48.40;;;;;;5002898;28;20577;-78
2022/05/06 11:33:36;;;;;;;5.40;4.88;;;30.40;47.40;;;;;;5011417;28;20054;-79
2022/05/06 11:36:03;;;;;;;4.97;4.03;;;30.70;47.00;;;;;;5016304;28;20550;-79
2022/05/06 11:38:39;;;;;;;4.93;4.43;;;30.50;46.50;;;;;;5015405;28;20099;-78
2022/05/06 11:41:10;;;;;;;5.07;4.57;;;30.50;47.10;;;;;;5007539;28;20120;-78
2022/05/06 11:43:43;;;;;;;4.90;4.43;;;30.60;47.30;;;;;;5003393;28;20061;-78
2022/05/06 11:49:15;;;;;;;5.75;3.70;;;30.30;44.40;;;;;;5015642;28;20364;-78
2022/05/06 11:51:59;;;;;;;3.63;3.28;;;30.30;47.00;;;;;;5000397;28;20416;-78
2022/05/06 11:54:30;;;;;;;4.45;3.42;;;30.70;46.70;;;;;;4998501;28;20053;-78
2022/05/06 11:56:58;;;;;;;3.92;3.53;;;30.90;45.30;;;;;;5016057;28;20037;-78
2022/05/06 11:59:33;;;;;;;5.07;3.72;;;31.00;44.80;;;;;;5020693;28;20049;-78
2022/05/06 12:02:13;;;;;;;4.40;3.30;;;31.10;44.20;;;;;;5022025;28;20045;-78
2022/05/06 12:04:39;;;;;;;4.30;3.90;;;31.10;43.40;;;;;;5025829;28;20048;-78
2022/05/06 12:07:05;;;;;;;4.60;3.72;;;31.10;44.20;;;;;;5030085;28;20048;-78
2022/05/06 12:09:44;;;;;;;3.78;2.97;;;31.10;44.30;;;;;;5029827;28;20052;-78
2022/05/06 12:12:22;;;;;;;4.30;3.70;;;31.20;43.40;;;;;;5013988;28;20037;-79
2022/05/06 12:15:21;;;;;;;5.43;3.80;;;31.10;43.80;;;;;;5032111;28;20096;-77
2022/05/06 12:17:47;;;;;;;4.65;3.83;;;31.10;42.90;;;;;;5009998;28;20424;-78
2022/05/06 12:20:42;;;;;;;3.53;2.88;;;30.90;44.20;;;;;;5015494;28;20171;-77
2022/05/06 12:23:13;;;;;;;3.30;3.00;;;31.00;43.60;;;;;;4998668;28;20136;-77
2022/05/06 12:25:51;;;;;;;5.32;3.45;;;31.00;44.00;;;;;;5041438;28;20052;-78
2022/05/06 12:28:24;;;;;;;2.67;1.92;;;31.00;44.40;;;;;;5010832;28;20474;-78
2022/05/06 12:30:59;;;;;;;2.53;2.00;;;30.90;44.20;;;;;;5034447;28;20033;-77
2022/05/06 12:33:45;;;;;;;3.60;3.13;;;31.10;42.80;;;;;;5017959;28;20051;-77
2022/05/06 12:36:24;;;;;;;2.70;2.13;;;31.20;43.70;;;;;;5011062;28;20037;-77
2022/05/06 12:38:57;;;;;;;3.35;2.20;;;31.30;43.50;;;;;;5014815;28;20049;-77
2022/05/06 12:41:40;;;;;;;2.35;1.75;;;31.30;43.60;;;;;;4998661;28;20041;-77
2022/05/06 12:44:46;;;;;;;3.58;2.13;;;31.40;42.60;;;;;;4998639;28;20051;-77
2022/05/06 12:50:14;;;;;;;3.63;2.15;;;31.70;42.00;;;;;;5014656;28;20049;-77
2022/05/06 12:53:09;;;;;;;;;;;;;;;;;;;;;
2022/05/06 12:55:52;;;;;;;2.85;1.70;;;32.20;43.00;;;;;;5022347;28;20120;-77
2022/05/06 12:58:27;;;;;;;1.50;1.38;;;32.30;42.20;;;;;;5011535;28;20399;-77
2022/05/06 13:01:00;;;;;;;2.15;1.95;;;32.20;42.20;;;;;;5012375;28;20080;-77
2022/05/06 13:03:49;;;;;;;3.65;1.70;;;32.20;42.10;;;;;;5001982;28;20119;-77
2022/05/06 13:06:21;;;;;;;2.47;1.73;;;31.70;42.70;;;;;;5000765;28;20049;-78
2022/05/06 13:09:05;;;;;;;1.85;1.25;;;31.50;42.40;;;;;;5024561;28;20052;-78
2022/05/06 13:11:40;;;;;;;2.53;1.85;;;31.50;42.40;;;;;;5017669;28;20048;-77
2022/05/06 13:14:21;;;;;;;2.08;1.88;;;31.60;42.40;;;;;;5017720;28;20045;-77
2022/05/06 13:16:59;;;;;;;3.63;1.70;;;31.60;42.70;;;;;;5018135;28;20078;-77
2022/05/06 13:19:29;;;;;;;2.42;1.50;;;31.70;42.90;;;;;;5012855;28;20049;-77
2022/05/06 13:21:58;;;;;;;2.55;1.60;;;31.90;42.30;;;;;;5004325;28;20041;-77
2022/05/06 13:24:23;;;;;;;2.08;1.88;;;31.90;42.10;;;;;;4997929;28;20037;-77
2022/05/06 13:26:58;;;;;;;2.80;1.83;;;31.90;41.80;;;;;;4998742;28;20053;-77
2022/05/06 13:29:26;;;;;;;3.35;2.20;;;31.90;41.90;;;;;;4997374;28;20036;-77
2022/05/06 13:31:59;;;;;;;3.35;2.35;;;31.80;42.30;;;;;;4997131;28;20491;-77
2022/05/06 13:34:25;;;;;;;3.92;2.00;;;31.70;41.80;;;;;;4997505;28;20055;-77
2022/05/06 13:36:56;;;;;;;1.80;1.50;;;31.60;42.00;;;;;;5010712;28;20033;-77
2022/05/06 13:39:28;;;;;;;2.58;2.08;;;31.50;42.00;;;;;;5016533;28;20503;-77
2022/05/06 13:42:09;;;;;;;2.83;1.90;;;31.40;42.50;;;;;;5016553;28;20462;-77
2022/05/06 13:44:52;;;;;;;2.10;1.90;;;31.30;42.40;;;;;;5009340;28;20045;-77
2022/05/06 13:47:18;;;;;;;2.45;1.92;;;31.10;42.00;;;;;;5007436;28;20049;-77
2022/05/06 13:49:44;;;;;;;3.72;2.40;;;31.00;42.40;;;;;;5013606;28;20041;-77
2022/05/06 13:52:21;;;;;;;3.83;2.78;;;31.00;42.10;;;;;;4998019;28;20415;-78
2022/05/06 13:54:56;;;;;;;3.30;2.28;;;30.80;42.20;;;;;;5001235;28;20033;-78
2022/05/06 14:00:11;;;;;;;2.35;2.15;;;30.60;42.60;;;;;;5013887;28;20482;-78
2022/05/06 14:02:47;;;;;;;3.50;2.42;;;30.60;42.30;;;;;;4998343;28;20045;-77
2022/05/06 14:05:19;;;;;;;3.65;3.10;;;30.60;42.80;;;;;;5013429;28;20408;-77
2022/05/06 14:08:01;;;;;;;;;;;;;;;;;;;;;
2022/05/06 14:10:29;;;;;;;4.75;3.50;;;30.50;43.40;;;;;;5024924;28;20065;-77
2022/05/06 14:13:03;;;;;;;4.68;3.72;;;30.70;43.80;;;;;;5033159;28;20144;-77
2022/05/06 14:15:29;;;;;;;5.25;3.60;;;30.60;42.80;;;;;;5030756;28;20037;-77
2022/05/06 14:18:11;;;;;;;5.03;3.67;;;30.40;43.00;;;;;;5006955;28;20120;-77
2022/05/06 14:20:40;;;;;;;4.97;3.72;;;30.50;43.80;;;;;;4997456;28;20045;-77
2022/05/06 14:23:12;;;;;;;5.57;4.53;;;30.50;44.30;;;;;;5001155;28;20427;-78
2022/05/06 14:25:47;;;;;;;4.70;4.20;;;30.40;43.60;;;;;;5005371;28;20045;-77